Time;durP1;ratioP1;P1;durP2;ratioP2;P2;SDS_P1;SDS_P2;PMS_P1;PMS_P2;Temp;Humidity;BMP_temperature;BMP_pressure;BME280_temperature;BME280_humidity;BME280_pressure;Samples;Min_cycle;Max_cycle;Signal;HPM_P1;HPM_P2
2023/05/15 00:00:50;;;;;;;;;;;13.30;99.90;;;;;;5133786;27;20446;-44
2023/05/15 00:03:16;;;;;;;;;;;13.30;99.90;;;;;;5133295;27;19911;-45
2023/05/15 00:05:41;;;;;;;;;;;13.30;99.90;;;;;;5132890;27;20393;-47
2023/05/15 00:08:07;;;;;;;;;;;13.30;99.90;;;;;;5133576;27;19907;-45
2023/05/15 00:10:32;;;;;;;;;;;13.30;99.90;;;;;;5133575;28;19908;-43
2023/05/15 00:12:58;;;;;;;;;;;13.30;99.90;;;;;;5132938;28;20008;-45
2023/05/15 00:15:23;;;;;;;;;;;13.30;99.90;;;;;;5135442;27;19915;-45
2023/05/15 00:17:49;;;;;;;;;;;13.30;99.90;;;;;;5138047;27;20370;-44
2023/05/15 00:20:14;;;;;;;;;;;13.30;99.90;;;;;;5137038;27;19912;-42
2023/05/15 00:22:40;;;;;;;;;;;13.30;99.90;;;;;;5137832;27;20358;-43
2023/05/15 00:25:05;;;;;;;;;;;13.30;99.90;;;;;;5137157;27;20009;-46
2023/05/15 00:27:31;;;;;;;;;;;13.30;99.90;;;;;;5136879;27;19914;-44
2023/05/15 00:29:56;;;;;;;;;;;13.30;99.90;;;;;;5138020;27;19914;-44
2023/05/15 00:32:22;;;;;;;;;;;13.30;99.90;;;;;;5136707;27;20021;-50
2023/05/15 00:34:47;;;;;;;;;;;13.30;99.90;;;;;;5137207;27;19911;-44
2023/05/15 00:37:13;;;;;;;;;;;13.20;99.90;;;;;;5137586;27;19956;-45
2023/05/15 00:39:39;;;;;;;;;;;13.20;99.90;;;;;;5136684;27;20421;-43
2023/05/15 00:42:05;;;;;;;;;;;13.20;99.90;;;;;;5137272;27;19908;-44
2023/05/15 00:44:31;;;;;;;;;;;13.10;99.90;;;;;;5137332;27;19907;-46
2023/05/15 00:46:56;;;;;;;;;;;13.00;99.90;;;;;;5136513;27;19915;-45
2023/05/15 00:49:22;;;;;;;;;;;13.00;99.90;;;;;;5137274;27;19911;-43
2023/05/15 00:51:48;;;;;;;;;;;13.00;99.90;;;;;;5137354;27;19911;-46
2023/05/15 00:54:14;;;;;;;;;;;13.00;99.90;;;;;;5128028;27;19912;-46
2023/05/15 00:56:40;;;;;;;;;;;13.00;99.90;;;;;;5116450;28;20282;-44
2023/05/15 00:59:06;;;;;;;;;;;13.10;99.90;;;;;;5116615;28;19914;-44
2023/05/15 01:01:33;;;;;;;;;;;13.10;99.90;;;;;;5115580;28;20305;-44
2023/05/15 01:04:02;;;;;;;;;;;13.10;99.90;;;;;;5116345;27;20332;-46
2023/05/15 01:06:28;;;;;;;;;;;13.10;99.90;;;;;;5116462;28;19907;-44
2023/05/15 01:08:55;;;;;;;;;;;13.10;99.90;;;;;;5115580;28;19908;-46
2023/05/15 01:11:23;;;;;;;;;;;13.10;99.90;;;;;;5115992;28;20007;-44
2023/05/15 01:13:48;;;;;;;;;;;13.10;99.90;;;;;;5116289;28;19912;-45
2023/05/15 01:16:14;;;;;;;;;;;13.10;99.90;;;;;;5115305;28;19931;-44
2023/05/15 01:18:39;;;;;;;;;;;13.10;99.90;;;;;;5116200;28;19908;-45
2023/05/15 01:21:17;;;;;;;;;;;13.10;99.90;;;;;;5135221;27;19911;-43
2023/05/15 01:23:52;;;;;;;;;;;13.10;99.90;;;;;;5137986;27;19912;-45
2023/05/15 01:26:23;;;;;;;;;;;13.10;99.90;;;;;;5135953;27;20358;-46
2023/05/15 01:28:55;;;;;;;;;;;13.00;99.90;;;;;;5135909;27;19907;-43
2023/05/15 01:31:22;;;;;;;;;;;13.00;99.90;;;;;;5148198;27;19907;-43
2023/05/15 01:33:52;;;;;;;;;;;13.00;99.90;;;;;;5156819;27;19919;-43
2023/05/15 01:36:23;;;;;;;;;;;13.00;99.90;;;;;;5156359;27;19915;-43
2023/05/15 01:38:52;;;;;;;;;;;13.00;99.90;;;;;;5123201;27;19915;-43
2023/05/15 01:41:17;;;;;;;;;;;13.00;99.90;;;;;;5115817;28;19968;-45
2023/05/15 01:43:44;;;;;;;;;;;13.00;99.90;;;;;;5114960;28;19908;-45
2023/05/15 01:46:14;;;;;;;;;;;12.90;99.90;;;;;;5115610;28;20004;-43
2023/05/15 01:48:40;;;;;;;;;;;12.80;99.90;;;;;;5115820;28;19915;-46
2023/05/15 01:51:06;;;;;;;;;;;12.80;99.90;;;;;;5112898;28;19908;-43
2023/05/15 01:53:32;;;;;;;;;;;12.80;99.90;;;;;;5142412;27;19911;-43
2023/05/15 01:55:59;;;;;;;;;;;12.70;99.90;;;;;;5133876;27;20014;-43
2023/05/15 01:58:25;;;;;;;;;;;12.60;99.90;;;;;;5135032;27;19911;-42
2023/05/15 02:00:51;;;;;;;;;;;12.60;99.90;;;;;;5135902;27;19950;-44
2023/05/15 02:03:17;;;;;;;;;;;12.60;99.90;;;;;;5135809;27;19957;-45
2023/05/15 02:05:43;;;;;;;;;;;12.60;99.90;;;;;;5135156;27;19951;-45
2023/05/15 02:08:09;;;;;;;;;;;12.60;99.90;;;;;;5135845;27;20284;-44
2023/05/15 02:10:35;;;;;;;;;;;12.60;99.90;;;;;;5135686;27;19913;-44
2023/05/15 02:13:01;;;;;;;;;;;12.60;99.90;;;;;;5134893;27;19908;-44
2023/05/15 02:15:27;;;;;;;;;;;12.60;99.90;;;;;;5135508;27;19915;-44
2023/05/15 02:17:53;;;;;;;;;;;12.70;99.90;;;;;;5135160;27;20011;-47
2023/05/15 02:20:18;;;;;;;;;;;12.70;99.90;;;;;;5135209;27;20355;-43
2023/05/15 02:22:44;;;;;;;;;;;12.70;99.90;;;;;;5135445;27;19907;-45
2023/05/15 02:25:09;;;;;;;;;;;12.70;99.90;;;;;;5134051;27;19998;-45
2023/05/15 02:27:45;;;;;;;;;;;12.70;99.90;;;;;;5134799;27;20281;-44
2023/05/15 02:30:10;;;;;;;;;;;12.70;99.90;;;;;;5134690;27;19911;-44
2023/05/15 02:32:42;;;;;;;;;;;12.70;99.90;;;;;;5134229;27;19914;-44
2023/05/15 02:35:25;;;;;;;;;;;12.70;99.90;;;;;;5135230;27;20381;-43
2023/05/15 02:37:52;;;;;;;;;;;12.60;99.90;;;;;;5134510;27;19911;-44
2023/05/15 02:40:19;;;;;;;;;;;12.60;99.90;;;;;;5134337;27;19908;-43
2023/05/15 02:42:45;;;;;;;;;;;12.60;99.90;;;;;;5135042;27;20412;-45
2023/05/15 02:45:11;;;;;;;;;;;12.50;99.90;;;;;;5135083;27;19913;-44
2023/05/15 02:47:37;;;;;;;;;;;12.50;99.90;;;;;;5134164;27;20006;-44
2023/05/15 02:50:03;;;;;;;;;;;12.50;99.90;;;;;;5134983;27;19907;-44
2023/05/15 02:52:28;;;;;;;;;;;12.50;99.90;;;;;;5134875;27;19908;-43
2023/05/15 02:54:53;;;;;;;;;;;12.50;99.90;;;;;;5121795;27;19912;-47
2023/05/15 02:57:19;;;;;;;;;;;12.50;99.90;;;;;;5114151;28;19956;-44
2023/05/15 02:59:45;;;;;;;;;;;12.50;99.90;;;;;;5114390;28;19975;-44
2023/05/15 03:02:10;;;;;;;;;;;12.50;99.90;;;;;;5113326;28;19908;-45
2023/05/15 03:04:36;;;;;;;;;;;12.40;99.90;;;;;;5114041;28;19908;-47
2023/05/15 03:07:01;;;;;;;;;;;12.40;99.90;;;;;;5114118;28;19914;-44
2023/05/15 03:09:27;;;;;;;;;;;12.40;99.90;;;;;;5113245;28;19998;-45
2023/05/15 03:11:52;;;;;;;;;;;12.40;99.90;;;;;;5113890;28;19943;-45
2023/05/15 03:14:18;;;;;;;;;;;12.40;99.90;;;;;;5113127;28;19919;-48
2023/05/15 03:16:43;;;;;;;;;;;12.40;99.90;;;;;;5113915;28;20404;-45
2023/05/15 03:19:09;;;;;;;;;;;12.40;99.90;;;;;;5113914;28;19908;-44
2023/05/15 03:21:34;;;;;;;;;;;12.30;99.90;;;;;;5112702;28;19908;-44
2023/05/15 03:24:00;;;;;;;;;;;12.30;99.90;;;;;;5114032;27;19907;-44
2023/05/15 03:26:25;;;;;;;;;;;12.30;99.90;;;;;;5121940;27;20207;-45
2023/05/15 03:28:51;;;;;;;;;;;12.30;99.90;;;;;;5133149;27;19908;-44
2023/05/15 03:31:16;;;;;;;;;;;12.30;99.90;;;;;;5134161;27;19917;-45
2023/05/15 03:33:44;;;;;;;;;;;12.30;99.90;;;;;;5133900;27;19919;-43
2023/05/15 03:36:10;;;;;;;;;;;12.30;99.90;;;;;;5132843;27;20326;-45
2023/05/15 03:38:35;;;;;;;;;;;12.30;99.90;;;;;;5134074;27;19994;-44
2023/05/15 03:41:01;;;;;;;;;;;12.30;99.90;;;;;;5133966;27;19915;-44
2023/05/15 03:43:27;;;;;;;;;;;12.30;99.90;;;;;;5133201;27;20052;-44
2023/05/15 03:45:52;;;;;;;;;;;12.30;99.90;;;;;;5133993;27;19908;-46
2023/05/15 03:48:18;;;;;;;;;;;12.30;99.90;;;;;;5133672;27;19911;-44
2023/05/15 03:50:44;;;;;;;;;;;12.40;99.90;;;;;;5132350;27;19911;-44
2023/05/15 03:53:09;;;;;;;;;;;12.20;99.90;;;;;;5133654;27;19908;-45
2023/05/15 03:55:35;;;;;;;;;;;12.20;99.90;;;;;;5116952;27;19919;-45
2023/05/15 03:58:01;;;;;;;;;;;12.20;99.90;;;;;;5112431;28;20315;-43
2023/05/15 04:00:26;;;;;;;;;;;12.20;99.90;;;;;;5113154;28;19962;-45
2023/05/15 04:02:52;;;;;;;;;;;12.20;99.90;;;;;;5113140;28;20350;-44
2023/05/15 04:05:18;;;;;;;;;;;12.20;99.90;;;;;;5112380;28;20402;-43
2023/05/15 04:07:44;;;;;;;;;;;12.20;99.90;;;;;;5113120;28;20315;-44
2023/05/15 04:10:09;;;;;;;;;;;12.20;99.90;;;;;;5113177;28;19951;-45
2023/05/15 04:12:35;;;;;;;;;;;12.20;99.90;;;;;;5112473;28;19908;-45
2023/05/15 04:15:19;;;;;;;;;;;12.10;99.90;;;;;;5113082;28;20380;-43
2023/05/15 04:17:45;;;;;;;;;;;12.20;99.90;;;;;;5112520;28;20037;-44
2023/05/15 04:20:11;;;;;;;;;;;12.10;99.90;;;;;;5112912;28;20354;-43
2023/05/15 04:22:37;;;;;;;;;;;12.10;99.90;;;;;;5113034;28;19907;-46
2023/05/15 04:25:03;;;;;;;;;;;12.00;99.90;;;;;;5123714;28;20327;-44
2023/05/15 04:27:29;;;;;;;;;;;12.00;99.90;;;;;;5133339;28;19911;-45
2023/05/15 04:29:54;;;;;;;;;;;11.90;99.90;;;;;;5133526;28;19907;-44
2023/05/15 04:32:21;;;;;;;;;;;12.00;99.90;;;;;;5132161;28;19907;-43
2023/05/15 04:34:46;;;;;;;;;;;11.90;99.90;;;;;;5133449;28;19914;-44
2023/05/15 04:37:12;;;;;;;;;;;11.90;99.90;;;;;;5133255;28;19915;-46
2023/05/15 04:39:37;;;;;;;;;;;11.80;99.90;;;;;;5132670;28;19911;-44
2023/05/15 04:42:03;;;;;;;;;;;11.80;99.90;;;;;;5132995;28;19974;-45
2023/05/15 04:44:28;;;;;;;;;;;11.80;99.90;;;;;;5133154;28;19916;-46
2023/05/15 04:46:54;;;;;;;;;;;11.80;99.90;;;;;;5132517;28;19986;-44
2023/05/15 04:49:19;;;;;;;;;;;11.80;99.90;;;;;;5133328;28;20362;-44
2023/05/15 04:51:45;;;;;;;;;;;11.90;99.90;;;;;;5133443;28;20358;-45
2023/05/15 04:54:10;;;;;;;;;;;11.90;99.90;;;;;;5131696;28;19911;-45
2023/05/15 04:56:36;;;;;;;;;;;12.00;99.90;;;;;;5122590;28;19971;-45
2023/05/15 04:59:01;;;;;;;;;;;11.90;99.90;;;;;;5121031;28;19924;-44
2023/05/15 05:01:27;;;;;;;;;;;11.90;99.90;;;;;;5123817;27;19915;-45
2023/05/15 05:03:53;;;;;;;;;;;11.90;99.90;;;;;;5124481;27;20342;-46
2023/05/15 05:06:18;;;;;;;;;;;11.80;99.90;;;;;;5126069;27;19921;-48
2023/05/15 05:08:43;;;;;;;;;;;11.70;99.90;;;;;;5124319;27;19912;-44
2023/05/15 05:11:09;;;;;;;;;;;11.80;99.90;;;;;;5129787;27;19907;-43
2023/05/15 05:13:34;;;;;;;;;;;11.80;99.90;;;;;;5130631;27;19946;-46
2023/05/15 05:16:00;;;;;;;;;;;11.70;99.90;;;;;;5135340;27;20294;-46
2023/05/15 05:18:25;;;;;;;;;;;11.70;99.90;;;;;;5136500;27;20358;-46
2023/05/15 05:20:57;;;;;;;;;;;11.70;99.90;;;;;;5135638;27;19915;-44
2023/05/15 05:23:23;;;;;;;;;;;11.70;99.90;;;;;;5136729;27;20306;-46
2023/05/15 05:25:48;;;;;;;;;;;11.70;99.90;;;;;;5136276;27;19965;-46
2023/05/15 05:28:14;;;;;;;;;;;11.80;99.90;;;;;;5135844;27;19921;-45
2023/05/15 05:30:43;;;;;;;;;;;11.80;99.90;;;;;;5136676;27;19907;-44
2023/05/15 05:33:08;;;;;;;;;;;11.90;99.90;;;;;;5136137;27;20389;-45
2023/05/15 05:35:34;;;;;;;;;;;11.90;99.90;;;;;;5143426;27;19919;-44
2023/05/15 05:37:59;;;;;;;;;;;11.90;99.90;;;;;;5132970;27;20374;-43
2023/05/15 05:40:25;;;;;;;;;;;11.90;99.90;;;;;;5135373;27;20281;-45
2023/05/15 05:42:50;;;;;;;;;;;11.90;99.90;;;;;;5134957;27;20388;-43
2023/05/15 05:45:16;;;;;;;;;;;11.90;99.90;;;;;;5142425;27;19930;-46
2023/05/15 05:47:41;;;;;;;;;;;11.90;99.90;;;;;;5142536;27;19915;-45
2023/05/15 05:50:07;;;;;;;;;;;12.00;99.90;;;;;;5154473;27;19907;-44
2023/05/15 05:52:33;;;;;;;;;;;12.00;99.90;;;;;;5115619;28;20324;-43
2023/05/15 05:54:58;;;;;;;;;;;12.00;99.90;;;;;;5115522;28;19912;-45
2023/05/15 05:57:24;;;;;;;;;;;12.00;99.90;;;;;;5114559;28;19919;-45
2023/05/15 05:59:49;;;;;;;;;;;12.00;99.90;;;;;;5116200;27;20380;-46
2023/05/15 06:02:15;;;;;;;;;;;12.10;99.90;;;;;;5142896;27;19911;-45
2023/05/15 06:04:40;;;;;;;;;;;12.10;99.90;;;;;;5144550;27;20262;-46
2023/05/15 06:07:06;;;;;;;;;;;12.00;99.90;;;;;;5144423;27;20392;-45
2023/05/15 06:09:31;;;;;;;;;;;12.10;99.90;;;;;;5138028;27;19938;-44
2023/05/15 06:11:57;;;;;;;;;;;12.10;99.90;;;;;;5134466;27;19998;-45
2023/05/15 06:14:22;;;;;;;;;;;12.10;99.90;;;;;;5134937;27;19955;-45
2023/05/15 06:16:48;;;;;;;;;;;12.10;99.90;;;;;;5135674;27;19915;-46
2023/05/15 06:19:14;;;;;;;;;;;12.20;99.90;;;;;;5134682;27;20052;-44
2023/05/15 06:21:39;;;;;;;;;;;12.20;99.90;;;;;;5125249;27;20392;-44
2023/05/15 06:24:05;;;;;;;;;;;12.40;99.90;;;;;;5125333;27;19948;-44
2023/05/15 06:26:30;;;;;;;;;;;12.40;99.90;;;;;;5130858;27;20300;-44
2023/05/15 06:28:56;;;;;;;;;;;12.50;99.90;;;;;;5129357;27;19985;-47
2023/05/15 06:31:21;;;;;;;;;;;12.60;99.90;;;;;;5124930;27;20377;-46
2023/05/15 06:33:47;;;;;;;;;;;12.70;99.90;;;;;;5121840;27;19919;-44
2023/05/15 06:36:12;;;;;;;;;;;12.70;99.90;;;;;;5125371;27;19915;-45
2023/05/15 06:38:38;;;;;;;;;;;12.70;99.90;;;;;;5122993;27;19919;-44
2023/05/15 06:41:03;;;;;;;;;;;12.80;99.90;;;;;;5126481;27;19922;-44
2023/05/15 06:43:29;;;;;;;;;;;12.80;99.90;;;;;;5124051;27;19908;-45
2023/05/15 06:45:54;;;;;;;;;;;12.70;99.90;;;;;;5120483;27;20389;-45
2023/05/15 06:48:20;;;;;;;;;;;12.70;99.90;;;;;;5121308;27;20378;-45
2023/05/15 06:50:45;;;;;;;;;;;12.70;99.90;;;;;;5120257;27;19931;-45
2023/05/15 06:53:11;;;;;;;;;;;12.70;99.90;;;;;;5130118;27;19911;-44
2023/05/15 06:55:37;;;;;;;;;;;12.70;99.90;;;;;;5130307;27;19931;-46
2023/05/15 06:58:03;;;;;;;;;;;12.70;99.90;;;;;;5127355;27;19919;-46
2023/05/15 07:00:28;;;;;;;;;;;12.70;99.90;;;;;;5123198;27;19919;-45
2023/05/15 07:02:54;;;;;;;;;;;12.70;99.90;;;;;;5124918;27;20278;-44
2023/05/15 07:05:20;;;;;;;;;;;12.80;99.90;;;;;;5118191;27;19987;-44
2023/05/15 07:07:46;;;;;;;;;;;12.80;99.90;;;;;;5137810;27;20384;-44
2023/05/15 07:10:12;;;;;;;;;;;12.90;99.90;;;;;;5129964;27;19911;-44
2023/05/15 07:12:37;;;;;;;;;;;13.00;99.90;;;;;;5122346;27;20339;-43
2023/05/15 07:15:03;;;;;;;;;;;13.00;99.90;;;;;;5137824;27;20255;-45
2023/05/15 07:17:30;;;;;;;;;;;13.00;99.90;;;;;;5132426;27;20334;-45
2023/05/15 07:19:55;;;;;;;;;;;13.10;99.90;;;;;;5138558;27;19994;-44
2023/05/15 07:22:21;;;;;;;;;;;13.10;99.90;;;;;;5135300;27;20316;-44
2023/05/15 07:24:46;;;;;;;;;;;13.20;99.90;;;;;;5131857;27;19915;-46
2023/05/15 07:27:12;;;;;;;;;;;13.20;99.90;;;;;;5118446;27;19912;-44
2023/05/15 07:29:37;;;;;;;;;;;13.30;99.90;;;;;;5115984;27;19916;-45
2023/05/15 07:32:03;;;;;;;;;;;13.30;99.90;;;;;;5131837;27;19909;-47
2023/05/15 07:34:28;;;;;;;;;;;13.40;99.90;;;;;;5131466;27;20434;-46
2023/05/15 07:36:54;;;;;;;;;;;13.40;99.90;;;;;;5132436;27;19916;-45
2023/05/15 07:39:19;;;;;;;;;;;13.50;99.90;;;;;;5132614;27;19907;-48
2023/05/15 07:41:46;;;;;;;;;;;13.60;99.90;;;;;;5133273;27;19912;-45
2023/05/15 07:44:11;;;;;;;;;;;13.60;99.90;;;;;;5118852;27;19915;-45
2023/05/15 07:46:37;;;;;;;;;;;13.70;99.90;;;;;;5134737;27;19914;-43
2023/05/15 07:49:03;;;;;;;;;;;13.70;99.90;;;;;;5133762;27;19916;-44
2023/05/15 07:51:28;;;;;;;;;;;13.80;99.90;;;;;;5125947;27;19998;-44
2023/05/15 07:53:54;;;;;;;;;;;13.90;99.90;;;;;;5114115;28;20052;-45
2023/05/15 07:56:20;;;;;;;;;;;14.00;99.90;;;;;;5130552;27;19935;-46
2023/05/15 07:58:45;;;;;;;;;;;14.00;99.90;;;;;;5144492;27;19914;-43
2023/05/15 08:01:11;;;;;;;;;;;14.10;99.90;;;;;;5152828;27;19907;-45
2023/05/15 08:03:36;;;;;;;;;;;14.20;99.90;;;;;;5139095;27;19912;-45
2023/05/15 08:06:02;;;;;;;;;;;14.30;99.90;;;;;;5138935;27;20051;-44
2023/05/15 08:08:27;;;;;;;;;;;14.40;99.90;;;;;;5155240;27;19907;-43
2023/05/15 08:10:53;;;;;;;;;;;14.50;99.90;;;;;;5139764;27;19911;-43
2023/05/15 08:13:18;;;;;;;;;;;14.50;99.90;;;;;;5124584;28;20266;-44
2023/05/15 08:15:44;;;;;;;;;;;14.60;99.90;;;;;;5113864;28;19964;-44
2023/05/15 08:18:10;;;;;;;;;;;14.70;99.90;;;;;;5123600;28;19911;-44
2023/05/15 08:20:36;;;;;;;;;;;14.80;99.90;;;;;;5134461;28;19934;-42
2023/05/15 08:23:02;;;;;;;;;;;14.90;99.90;;;;;;5133649;28;19911;-42
2023/05/15 08:25:27;;;;;;;;;;;14.90;99.90;;;;;;5139957;27;20366;-44
2023/05/15 08:27:53;;;;;;;;;;;15.00;99.90;;;;;;5132770;27;19912;-44
2023/05/15 08:30:18;;;;;;;;;;;15.10;99.90;;;;;;5143998;27;20014;-44
2023/05/15 08:32:47;;;;;;;;;;;15.20;99.90;;;;;;5140975;27;19926;-43
2023/05/15 08:35:13;;;;;;;;;;;15.20;99.90;;;;;;5133902;27;19911;-44
2023/05/15 08:37:39;;;;;;;;;;;15.20;99.90;;;;;;5141864;27;19908;-44
2023/05/15 08:40:06;;;;;;;;;;;15.30;99.90;;;;;;5139910;27;19960;-45
2023/05/15 08:42:36;;;;;;;;;;;15.40;99.90;;;;;;5152897;27;19934;-45
2023/05/15 08:45:02;;;;;;;;;;;15.50;99.90;;;;;;5134406;27;19916;-44
2023/05/15 08:47:28;;;;;;;;;;;15.60;99.90;;;;;;5137422;27;20010;-43
2023/05/15 08:49:53;;;;;;;;;;;15.60;99.90;;;;;;5137485;27;20362;-44
2023/05/15 08:52:19;;;;;;;;;;;15.70;99.90;;;;;;5143739;27;19941;-43
2023/05/15 08:54:46;;;;;;;;;;;15.80;99.90;;;;;;5143478;27;19915;-44
2023/05/15 08:57:13;;;;;;;;;;;15.90;99.90;;;;;;5150828;27;20018;-44
2023/05/15 08:59:38;;;;;;;;;;;16.00;99.90;;;;;;5136480;27;19915;-43
2023/05/15 09:02:04;;;;;;;;;;;16.00;99.90;;;;;;5156917;27;19907;-44
2023/05/15 09:04:29;;;;;;;;;;;16.10;99.90;;;;;;5157891;27;19914;-43
2023/05/15 09:06:57;;;;;;;;;;;16.20;99.90;;;;;;5141162;27;20262;-45
2023/05/15 09:09:23;;;;;;;;;;;16.30;99.90;;;;;;5139226;27;19918;-46
2023/05/15 09:11:49;;;;;;;;;;;16.40;99.90;;;;;;5143775;27;19908;-44
2023/05/15 09:14:15;;;;;;;;;;;16.50;99.90;;;;;;5138823;27;19911;-43
2023/05/15 09:16:40;;;;;;;;;;;16.60;99.90;;;;;;5147456;27;19942;-44
2023/05/15 09:19:06;;;;;;;;;;;16.70;99.90;;;;;;5145128;27;19912;-44
2023/05/15 09:21:32;;;;;;;;;;;16.80;99.90;;;;;;5135976;27;20005;-43
2023/05/15 09:24:21;;;;;;;;;;;16.80;99.90;;;;;;5145877;27;19907;-44
2023/05/15 09:27:00;;;;;;;;;;;16.90;99.90;;;;;;5130654;27;19911;-43
2023/05/15 09:29:26;;;;;;;;;;;17.00;99.90;;;;;;5146422;27;19911;-44
2023/05/15 09:31:52;;;;;;;;;;;17.10;99.90;;;;;;5137348;27;19919;-45
2023/05/15 09:34:17;;;;;;;;;;;17.20;99.90;;;;;;5135332;27;19923;-44
2023/05/15 09:36:46;;;;;;;;;;;17.30;99.90;;;;;;5138963;27;19927;-45
2023/05/15 09:39:12;;;;;;;;;;;17.40;99.90;;;;;;5133774;27;19915;-44
2023/05/15 09:41:40;;;;;;;;;;;17.40;99.90;;;;;;5130197;27;19916;-43
2023/05/15 09:44:16;;;;;;;;;;;17.60;99.90;;;;;;5145275;27;19956;-45
2023/05/15 09:46:41;;;;;;;;;;;17.60;99.90;;;;;;5136589;27;19950;-44
2023/05/15 09:49:08;;;;;;;;;;;17.80;99.90;;;;;;5140894;27;19995;-43
2023/05/15 09:51:33;;;;;;;;;;;17.80;99.90;;;;;;5153865;27;19911;-45
2023/05/15 09:53:59;;;;;;;;;;;17.80;99.90;;;;;;5118815;27;19918;-44
2023/05/15 09:56:25;;;;;;;;;;;17.90;99.90;;;;;;5114644;28;19927;-44
2023/05/15 09:58:54;;;;;;;;;;;18.00;99.90;;;;;;5115430;28;20002;-43
2023/05/15 10:01:20;;;;;;;;;;;18.10;99.90;;;;;;5115118;28;20285;-46
2023/05/15 10:03:55;;;;;;;;;;;18.30;99.90;;;;;;5114689;28;19915;-43
2023/05/15 10:06:21;;;;;;;;;;;18.30;98.10;;;;;;5115732;28;19961;-44
2023/05/15 10:08:50;;;;;;;;;;;18.30;99.10;;;;;;5116134;28;19912;-44
2023/05/15 10:11:16;;;;;;;;;;;18.40;99.90;;;;;;5115483;28;19908;-45
2023/05/15 10:13:41;;;;;;;;;;;18.40;99.90;;;;;;5115580;28;20294;-43
2023/05/15 10:16:07;;;;;;;;;;;18.40;96.80;;;;;;5114963;28;20359;-43
2023/05/15 10:18:33;;;;;;;;;;;18.40;96.10;;;;;;5114636;28;19964;-44
2023/05/15 10:21:02;;;;;;;;;;;18.40;99.00;;;;;;5117893;27;20350;-43
2023/05/15 10:23:29;;;;;;;;;;;18.50;98.60;;;;;;5130288;27;19999;-44
2023/05/15 10:26:01;;;;;;;;;;;18.50;98.20;;;;;;5129918;27;19922;-44
2023/05/15 10:28:27;;;;;;;;;;;18.40;98.00;;;;;;5138887;27;20270;-45
2023/05/15 10:30:54;;;;;;;;;;;18.40;98.20;;;;;;5135620;27;20003;-50
2023/05/15 10:33:19;;;;;;;;;;;18.50;98.10;;;;;;5140698;27;19971;-44
2023/05/15 10:35:45;;;;;;;;;;;18.50;97.00;;;;;;5144025;27;19969;-45
2023/05/15 10:38:11;;;;;;;;;;;18.60;99.60;;;;;;5140621;27;19911;-43
2023/05/15 10:40:38;;;;;;;;;;;18.70;96.70;;;;;;5148152;27;19912;-44
2023/05/15 10:43:04;;;;;;;;;;;18.70;95.80;;;;;;5114549;28;19908;-42
2023/05/15 10:45:30;;;;;;;;;;;18.80;96.60;;;;;;5113700;28;19926;-45
2023/05/15 10:47:56;;;;;;;;;;;18.80;97.20;;;;;;5133654;27;19915;-47
2023/05/15 10:50:21;;;;;;;;;;;18.90;97.30;;;;;;5132562;27;19967;-45
2023/05/15 10:52:49;;;;;;;;;;;18.90;95.60;;;;;;5114091;28;19908;-45
2023/05/15 10:55:16;;;;;;;;;;;19.10;97.60;;;;;;5135204;27;19908;-45
2023/05/15 10:57:41;;;;;;;;;;;19.10;97.50;;;;;;5135594;27;19911;-44
2023/05/15 11:00:22;;;;;;;;;;;19.20;97.00;;;;;;5120123;27;19911;-44
2023/05/15 11:02:48;;;;;;;;;;;19.30;97.70;;;;;;5114805;28;19912;-43
2023/05/15 11:05:14;;;;;;;;;;;19.40;95.70;;;;;;5114844;27;19908;-43
2023/05/15 11:07:40;;;;;;;;;;;19.50;97.00;;;;;;5129420;27;19980;-46
2023/05/15 11:10:23;;;;;;;;;;;19.50;96.40;;;;;;5121012;27;19926;-44
2023/05/15 11:12:56;;;;;;;;;;;19.60;97.10;;;;;;5134597;27;19930;-46
2023/05/15 11:15:22;;;;;;;;;;;19.80;95.20;;;;;;5134798;27;19908;-43
2023/05/15 11:18:04;;;;;;;;;;;20.00;94.00;;;;;;5135277;27;19918;-44
2023/05/15 11:20:33;;;;;;;;;;;20.20;95.30;;;;;;5134275;27;20285;-46
2023/05/15 11:22:59;;;;;;;;;;;20.20;94.00;;;;;;5134867;27;20330;-46
2023/05/15 11:25:33;;;;;;;;;;;20.30;94.50;;;;;;5134924;27;19915;-45
2023/05/15 11:27:58;;;;;;;;;;;20.40;93.40;;;;;;5134393;27;19915;-43
2023/05/15 11:30:34;;;;;;;;;;;20.50;95.00;;;;;;5134471;27;19908;-47
2023/05/15 11:33:00;;;;;;;;;;;20.60;94.10;;;;;;5134494;27;20022;-44
2023/05/15 11:35:37;;;;;;;;;;;20.60;92.30;;;;;;5143844;27;19919;-43
2023/05/15 11:38:08;;;;;;;;;;;20.70;94.50;;;;;;5113533;28;20294;-43
2023/05/15 11:40:47;;;;;;;;;;;20.80;94.20;;;;;;5123678;27;20423;-42
2023/05/15 11:43:20;;;;;;;;;;;20.80;92.60;;;;;;5134846;27;19908;-43
2023/05/15 11:45:51;;;;;;;;;;;20.70;92.40;;;;;;5134879;27;19914;-44
2023/05/15 11:48:18;;;;;;;;;;;20.70;90.20;;;;;;5134169;27;20010;-44
2023/05/15 11:50:45;;;;;;;;;;;20.50;90.90;;;;;;5133594;27;19937;-43
2023/05/15 11:53:11;;;;;;;;;;;20.30;83.50;;;;;;5122559;27;19958;-44
2023/05/15 11:55:39;;;;;;;;;;;20.30;90.50;;;;;;5116000;27;20349;-44
2023/05/15 11:58:04;;;;;;;;;;;20.10;91.50;;;;;;5113829;28;19918;-44
2023/05/15 12:00:30;;;;;;;;;;;20.30;93.10;;;;;;5116685;27;20295;-46
2023/05/15 12:02:56;;;;;;;;;;;20.40;90.60;;;;;;5136128;27;19916;-43
2023/05/15 12:05:22;;;;;;;;;;;20.50;93.50;;;;;;5131819;27;20377;-43
2023/05/15 12:07:47;;;;;;;;;;;20.70;94.50;;;;;;5138048;27;19963;-42
2023/05/15 12:10:13;;;;;;;;;;;20.90;93.90;;;;;;5144312;27;20381;-44
2023/05/15 12:12:40;;;;;;;;;;;21.00;92.20;;;;;;5115110;28;19915;-44
2023/05/15 12:15:07;;;;;;;;;;;21.00;90.30;;;;;;5132174;27;20372;-46
2023/05/15 12:17:34;;;;;;;;;;;20.90;88.30;;;;;;5119250;28;19919;-43
2023/05/15 12:20:00;;;;;;;;;;;20.80;90.50;;;;;;5120354;28;19927;-46
2023/05/15 12:22:26;;;;;;;;;;;20.80;90.70;;;;;;5120620;27;19912;-44
2023/05/15 12:24:51;;;;;;;;;;;20.70;93.00;;;;;;5113741;28;19911;-43
2023/05/15 12:27:17;;;;;;;;;;;20.80;93.00;;;;;;5117812;28;19912;-45
2023/05/15 12:29:43;;;;;;;;;;;21.00;93.60;;;;;;5119392;28;19951;-43
2023/05/15 12:32:08;;;;;;;;;;;21.00;94.00;;;;;;5117815;28;20285;-43
2023/05/15 12:34:34;;;;;;;;;;;21.10;93.60;;;;;;5125225;28;20457;-44
2023/05/15 12:37:00;;;;;;;;;;;21.10;94.10;;;;;;5123875;28;19919;-43
2023/05/15 12:39:26;;;;;;;;;;;21.10;93.50;;;;;;5137073;27;19951;-44
2023/05/15 12:41:55;;;;;;;;;;;21.30;93.10;;;;;;5126418;28;19919;-44
2023/05/15 12:44:20;;;;;;;;;;;21.40;92.90;;;;;;5129165;28;19915;-46
2023/05/15 12:46:46;;;;;;;;;;;21.20;92.00;;;;;;5117068;28;19912;-46
2023/05/15 12:49:12;;;;;;;;;;;21.30;92.90;;;;;;5116517;28;19911;-44
2023/05/15 12:51:43;;;;;;;;;;;21.20;92.90;;;;;;5118804;28;19955;-43
2023/05/15 12:54:16;;;;;;;;;;;21.10;93.00;;;;;;5120256;28;19918;-45
2023/05/15 12:56:42;;;;;;;;;;;21.10;93.00;;;;;;5122391;27;19919;-44
2023/05/15 12:59:07;;;;;;;;;;;21.20;92.70;;;;;;5122152;28;19958;-44
2023/05/15 13:01:34;;;;;;;;;;;21.30;91.90;;;;;;5115186;28;20319;-44
2023/05/15 13:03:59;;;;;;;;;;;21.50;92.50;;;;;;5115957;28;20066;-44
2023/05/15 13:06:26;;;;;;;;;;;21.50;92.40;;;;;;5123272;28;20010;-43
2023/05/15 13:08:53;;;;;;;;;;;21.40;92.10;;;;;;5116571;28;19918;-44
2023/05/15 13:11:18;;;;;;;;;;;21.40;92.60;;;;;;5127062;27;19915;-44
2023/05/15 13:13:48;;;;;;;;;;;21.50;92.20;;;;;;5128893;27;19911;-44
2023/05/15 13:16:20;;;;;;;;;;;21.60;92.40;;;;;;5121138;28;20006;-44
2023/05/15 13:18:46;;;;;;;;;;;21.60;92.10;;;;;;5125732;28;19918;-45
2023/05/15 13:21:11;;;;;;;;;;;21.40;92.00;;;;;;5120516;27;19911;-44
2023/05/15 13:23:36;;;;;;;;;;;21.50;92.40;;;;;;5125370;27;19915;-46
2023/05/15 13:26:02;;;;;;;;;;;21.80;92.50;;;;;;5125185;27;20369;-47
2023/05/15 13:28:27;;;;;;;;;;;22.20;93.00;;;;;;5124875;27;19911;-44
2023/05/15 13:30:53;;;;;;;;;;;22.30;89.80;;;;;;5133430;27;20333;-45
2023/05/15 13:33:18;;;;;;;;;;;22.10;91.00;;;;;;5129107;27;19923;-44
2023/05/15 13:35:44;;;;;;;;;;;21.80;90.80;;;;;;5128791;27;19916;-44
2023/05/15 13:38:10;;;;;;;;;;;21.80;90.70;;;;;;5130942;27;20359;-44
2023/05/15 13:40:36;;;;;;;;;;;21.70;91.00;;;;;;5135217;27;20370;-45
2023/05/15 13:43:02;;;;;;;;;;;21.60;91.10;;;;;;5132982;27;19912;-44
2023/05/15 13:45:27;;;;;;;;;;;21.70;91.30;;;;;;5134944;27;19918;-44
2023/05/15 13:47:53;;;;;;;;;;;22.00;91.00;;;;;;5127053;27;19912;-45
2023/05/15 13:50:19;;;;;;;;;;;22.10;90.70;;;;;;5127578;27;19912;-43
2023/05/15 13:52:45;;;;;;;;;;;22.20;90.30;;;;;;5124139;27;19912;-43
2023/05/15 13:55:11;;;;;;;;;;;22.60;88.50;;;;;;5119310;27;19920;-47
2023/05/15 13:57:37;;;;;;;;;;;22.90;88.30;;;;;;5123492;27;19926;-44
2023/05/15 14:00:06;;;;;;;;;;;22.80;84.80;;;;;;5128619;27;20014;-45
2023/05/15 14:02:32;;;;;;;;;;;22.40;80.30;;;;;;5115541;27;19915;-45
2023/05/15 14:04:57;;;;;;;;;;;22.50;82.50;;;;;;5132812;27;19965;-44
2023/05/15 14:07:23;;;;;;;;;;;22.60;81.00;;;;;;5120103;27;20271;-45
2023/05/15 14:09:49;;;;;;;;;;;22.90;83.40;;;;;;5123219;27;20006;-44
2023/05/15 14:12:14;;;;;;;;;;;23.30;86.60;;;;;;5121755;27;19912;-44